Time;durP1;ratioP1;P1;durP2;ratioP2;P2;SDS_P1;SDS_P2;PMS_P1;PMS_P2;Temp;Humidity;BMP_temperature;BMP_pressure;BME280_temperature;BME280_humidity;BME280_pressure;Samples;Min_cycle;Max_cycle;Signal;HPM_P1;HPM_P2
2021/06/16 00:00:33;;;;;;;11.60;3.75;;;;;;;21.30;41.55;101700.56;4990141;28;114289;-63
2021/06/16 00:03:00;;;;;;;9.48;3.80;;;;;;;21.26;41.63;101699.09;4990712;28;114451;-63
2021/06/16 00:05:29;;;;;;;6.57;3.30;;;;;;;21.22;41.80;101697.63;4990834;28;124744;-63
2021/06/16 00:07:57;;;;;;;9.00;3.35;;;;;;;21.19;41.85;101696.88;4991506;28;124224;-63
2021/06/16 00:10:28;;;;;;;8.20;3.15;;;;;;;21.16;42.04;101691.72;4989628;28;115181;-63
2021/06/16 00:12:56;;;;;;;7.72;3.70;;;;;;;21.13;42.17;101691.94;4962157;28;114986;-63
2021/06/16 00:15:37;;;;;;;12.57;3.60;;;;;;;21.09;41.96;101682.38;4989666;28;124155;-63
2021/06/16 00:18:05;;;;;;;10.27;3.35;;;;;;;21.06;42.10;101688.00;4978873;28;124221;-62
2021/06/16 00:20:34;;;;;;;8.52;3.20;;;;;;;21.02;42.47;101686.53;4991361;28;114291;-63
2021/06/16 00:23:02;;;;;;;8.07;3.30;;;;;;;20.99;42.47;101692.16;4974379;28;113444;-63
2021/06/16 00:25:29;;;;;;;8.43;3.38;;;;;;;20.97;42.41;101694.09;4992493;28;124419;-63
2021/06/16 00:27:57;;;;;;;10.52;3.33;;;;;;;20.96;42.41;101692.38;4991249;28;124525;-62
2021/06/16 00:30:24;;;;;;;7.05;3.60;;;;;;;20.95;42.60;101686.13;4972204;28;115141;-63
2021/06/16 00:32:52;;;;;;;12.02;3.58;;;;;;;20.93;42.67;101681.84;4990841;28;113883;-63
2021/06/16 00:35:20;;;;;;;8.80;3.78;;;;;;;20.91;42.70;101678.41;4974304;28;123193;-63
2021/06/16 00:37:49;;;;;;;9.20;3.63;;;;;;;20.88;43.00;101678.63;4990199;28;124365;-63
2021/06/16 00:40:20;;;;;;;10.10;3.70;;;;;;;20.85;43.00;101676.16;4990115;28;114510;-63
2021/06/16 00:42:47;;;;;;;9.35;3.78;;;;;;;20.83;43.01;101675.41;4989988;28;114337;-62
2021/06/16 00:45:14;;;;;;;5.55;3.55;;;;;;;20.79;43.21;101670.28;4973921;28;123491;-63
2021/06/16 00:47:41;;;;;;;8.55;3.75;;;;;;;20.75;43.28;101668.78;4989987;28;124781;-63
2021/06/16 00:50:11;;;;;;;12.18;4.20;;;;;;;20.71;43.53;101672.66;4973967;28;113143;-63
2021/06/16 00:52:39;;;;;;;6.95;3.60;;;;;;;20.67;43.42;101671.19;4989857;28;114103;-63
2021/06/16 00:55:07;;;;;;;8.07;3.58;;;;;;;20.64;43.47;101682.16;4988601;28;124059;-62
2021/06/16 00:57:35;;;;;;;7.45;3.55;;;;;;;20.60;43.66;101675.31;4990265;28;124864;-62
2021/06/16 01:00:10;;;;;;;11.85;3.97;;;;;;;20.54;43.71;101670.34;4990611;28;115475;-63
2021/06/16 01:02:51;;;;;;;6.65;3.83;;;;;;;20.50;43.80;101664.34;4989403;28;115724;-63
2021/06/16 01:05:19;;;;;;;9.10;3.80;;;;;;;20.47;43.80;101658.31;4971934;28;122797;-62
2021/06/16 01:07:53;;;;;;;8.68;4.13;;;;;;;20.42;44.30;101656.84;4990319;28;123834;-63
2021/06/16 01:10:23;;;;;;;13.05;4.25;;;;;;;20.37;44.07;101658.13;4990929;28;114515;-63
2021/06/16 01:13:05;;;;;;;9.23;3.88;;;;;;;20.33;43.97;101662.88;4971488;28;114432;-63
2021/06/16 01:16:15;;;;;;;9.30;3.83;;;;;;;20.26;43.95;101658.91;4988863;28;123872;-63
2021/06/16 01:18:48;;;;;;;7.18;3.58;;;;;;;20.22;44.36;101660.13;4957271;28;124542;-62
2021/06/16 01:21:17;;;;;;;9.40;3.70;;;;;;;20.18;44.42;101658.63;4972963;28;113750;-62
2021/06/16 01:24:05;;;;;;;9.38;4.15;;;;;;;20.15;44.48;101664.22;4992173;28;114312;-63
2021/06/16 01:26:38;;;;;;;8.15;4.22;;;;;;;20.12;44.68;101653.69;4974638;28;124069;-62
2021/06/16 01:29:13;;;;;;;6.60;4.00;;;;;;;20.07;44.78;101661.25;4989810;28;124334;-62
2021/06/16 01:31:42;;;;;;;10.63;4.53;;;;;;;20.05;44.80;101657.81;4990245;28;114776;-63
2021/06/16 01:34:10;;;;;;;7.47;3.95;;;;;;;20.01;45.01;101658.00;4988649;28;114378;-62
2021/06/16 01:36:41;;;;;;;9.10;4.10;;;;;;;19.97;45.00;101656.53;4985313;28;124375;-63
2021/06/16 01:39:11;;;;;;;7.85;3.85;;;;;;;19.96;44.75;101653.94;4989513;28;124268;-62
2021/06/16 01:41:39;;;;;;;8.55;4.07;;;;;;;19.95;45.15;101658.47;4988525;28;114479;-63
2021/06/16 01:44:08;;;;;;;8.43;4.60;;;;;;;19.92;45.29;101647.91;4989145;28;114275;-63
2021/06/16 01:46:37;;;;;;;9.95;5.20;;;;;;;19.90;45.37;101659.75;4986760;22;123302;-70
2021/06/16 01:49:05;;;;;;;11.07;4.53;;;;;;;19.89;45.50;101653.53;5009789;28;122561;-71
2021/06/16 01:51:33;;;;;;;9.80;3.90;;;;;;;19.88;45.30;101651.78;5008960;28;115598;-71
2021/06/16 01:54:02;;;;;;;9.65;4.40;;;;;;;19.86;45.35;101653.75;4995201;28;115063;-70
2021/06/16 01:56:32;;;;;;;10.45;4.68;;;;;;;19.84;45.56;101650.31;5013498;28;124118;-70
2021/06/16 01:59:01;;;;;;;9.20;4.10;;;;;;;19.82;45.56;101646.88;5014233;28;123793;-71
2021/06/16 02:01:29;;;;;;;9.13;4.28;;;;;;;19.82;45.60;101647.72;5011714;28;114427;-70
2021/06/16 02:03:57;;;;;;;8.50;4.35;;;;;;;19.79;45.57;101641.69;5002790;28;113199;-70
2021/06/16 02:06:29;;;;;;;8.48;4.30;;;;;;;19.78;46.01;101645.38;5004293;28;123221;-71
2021/06/16 02:08:59;;;;;;;8.82;4.35;;;;;;;19.76;45.72;101641.91;5013507;28;124375;-70
2021/06/16 02:11:29;;;;;;;8.70;4.28;;;;;;;19.75;45.67;101640.22;4996128;28;113338;-70
2021/06/16 02:14:00;;;;;;;12.18;4.78;;;;;;;19.72;45.66;101635.00;5010839;28;114128;-71
2021/06/16 02:16:39;;;;;;;10.27;4.35;;;;;;;19.71;45.92;101638.69;4999800;28;124155;-70
2021/06/16 02:19:19;;;;;;;8.60;4.45;;;;;;;19.67;45.66;101631.81;5010837;28;124331;-70
2021/06/16 02:21:47;;;;;;;7.28;4.13;;;;;;;19.64;45.85;101639.09;5012024;28;114873;-70
2021/06/16 02:24:14;;;;;;;7.25;4.43;;;;;;;19.62;45.86;101635.66;5011782;28;114156;-70
2021/06/16 02:26:41;;;;;;;10.15;5.15;;;;;;;19.60;46.41;101632.22;5010319;28;124463;-71
2021/06/16 02:29:10;;;;;;;9.77;4.45;;;;;;;19.58;46.15;101618.03;5022349;28;124163;-70
2021/06/16 02:31:39;;;;;;;7.95;4.20;;;;;;;19.55;46.27;101623.66;5021552;28;114078;-71
2021/06/16 02:34:07;;;;;;;11.00;4.28;;;;;;;19.53;46.32;101614.81;5003112;28;114376;-71
2021/06/16 02:36:38;;;;;;;9.32;4.53;;;;;;;19.49;46.52;101618.69;5007799;28;123857;-70
2021/06/16 02:39:11;;;;;;;11.02;4.55;;;;;;;19.47;46.21;101615.25;5003943;28;123840;-70
2021/06/16 02:41:38;;;;;;;10.13;4.43;;;;;;;19.45;46.40;101617.19;5010876;28;115279;-70
2021/06/16 02:44:05;;;;;;;9.75;4.45;;;;;;;19.43;46.39;101611.06;5012902;28;115570;-70
2021/06/16 02:46:36;;;;;;;9.50;4.68;;;;;;;19.40;46.65;101605.88;5013160;28;123832;-71
2021/06/16 02:49:06;;;;;;;7.90;4.25;;;;;;;19.39;46.57;101606.88;4993875;28;122835;-70
2021/06/16 02:51:36;;;;;;;10.35;4.65;;;;;;;19.39;46.56;101602.34;5001208;28;114190;-70
2021/06/16 02:54:09;;;;;;;7.82;4.40;;;;;;;19.39;46.53;101601.50;5008470;28;114428;-70
2021/06/16 02:56:38;;;;;;;13.20;4.60;;;;;;;19.41;46.58;101604.94;5012244;28;124780;-70
2021/06/16 02:59:07;;;;;;;9.68;4.78;;;;;;;19.40;46.63;101592.47;5011972;28;123945;-71
2021/06/16 03:01:35;;;;;;;8.43;4.57;;;;;;;19.41;46.71;101594.19;4978647;28;113514;-70
2021/06/16 03:04:04;;;;;;;10.93;4.85;;;;;;;19.40;46.90;101592.47;4994204;28;112922;-70
2021/06/16 03:06:32;;;;;;;8.25;4.70;;;;;;;19.38;46.85;101583.66;5010024;28;124299;-70
2021/06/16 03:09:00;;;;;;;10.38;4.82;;;;;;;19.37;46.86;101587.31;4994328;28;124065;-70
2021/06/16 03:11:29;;;;;;;13.45;4.82;;;;;;;19.36;47.18;101585.59;5009860;28;114469;-70
2021/06/16 03:13:58;;;;;;;14.80;5.03;;;;;;;19.36;47.02;101585.59;5009642;28;114790;-70
2021/06/16 03:16:26;;;;;;;11.73;4.93;;;;;;;19.36;47.11;101580.22;5009820;28;124697;-70
2021/06/16 03:18:58;;;;;;;9.70;5.07;;;;;;;19.35;47.09;101589.25;5010468;28;124308;-70
2021/06/16 03:21:26;;;;;;;13.07;4.80;;;;;;;19.34;47.34;101592.91;4995398;28;113469;-70
2021/06/16 03:23:54;;;;;;;9.23;4.80;;;;;;;19.32;47.18;101589.47;5013852;28;114204;-70
2021/06/16 03:26:24;;;;;;;14.60;5.25;;;;;;;19.29;47.33;101585.19;4998260;28;122950;-70
2021/06/16 03:28:52;;;;;;;10.23;5.03;;;;;;;19.30;47.17;101586.03;5009816;28;125271;-71
2021/06/16 03:31:20;;;;;;;15.95;5.30;;;;;;;19.28;47.50;101591.50;5010415;28;115163;-71
2021/06/16 03:33:49;;;;;;;10.18;5.00;;;;;;;19.25;47.59;101589.91;5010969;28;114918;-70
2021/06/16 03:36:19;;;;;;;10.02;5.05;;;;;;;19.24;47.59;101587.31;5012001;28;124029;-70
2021/06/16 03:38:50;;;;;;;10.80;4.82;;;;;;;19.24;47.60;101588.16;5001873;28;123677;-71
2021/06/16 03:41:20;;;;;;;9.15;4.78;;;;;;;19.23;47.66;101578.41;4995290;28;114066;-70
2021/06/16 03:43:50;;;;;;;12.00;4.80;;;;;;;19.23;47.77;101581.09;4993076;28;114243;-70
2021/06/16 03:46:19;;;;;;;11.50;4.82;;;;;;;19.22;47.47;101584.72;5006953;28;123801;-70
2021/06/16 03:48:50;;;;;;;10.48;5.05;;;;;;;19.22;47.68;101568.63;5010968;28;123945;-70
2021/06/16 03:51:18;;;;;;;12.60;5.10;;;;;;;19.23;47.68;101581.09;5013120;28;114487;-70
2021/06/16 03:53:48;;;;;;;8.32;5.10;;;;;;;19.24;47.87;101569.38;5010193;28;114346;-70
2021/06/16 03:56:16;;;;;;;10.25;5.70;;;;;;;19.23;47.78;101564.97;5009659;28;124436;-70
2021/06/16 03:58:44;;;;;;;14.40;5.43;;;;;;;19.22;47.88;101565.94;5009531;28;124708;-70
2021/06/16 04:01:15;;;;;;;13.98;5.85;;;;;;;19.22;47.92;101567.75;5011842;28;114510;-70
2021/06/16 04:03:43;;;;;;;8.73;5.45;;;;;;;19.22;47.80;101568.63;5012602;28;114141;-70
2021/06/16 04:06:13;;;;;;;12.85;6.07;;;;;;;19.22;47.98;101563.25;5012618;28;124032;-70
2021/06/16 04:08:47;;;;;;;14.43;5.47;;;;;;;19.23;48.08;101564.09;5008983;28;124215;-71
2021/06/16 04:11:14;;;;;;;13.30;5.80;;;;;;;19.24;47.86;101555.94;5011522;28;114197;-70
2021/06/16 04:13:41;;;;;;;12.85;5.60;;;;;;;19.29;48.09;101561.00;5012027;28;114294;-71
2021/06/16 04:16:09;;;;;;;14.82;5.93;;;;;;;19.31;48.35;101560.88;5008893;28;124575;-70
2021/06/16 04:18:40;;;;;;;11.20;6.10;;;;;;;19.32;48.35;101562.59;5008455;28;124110;-70
2021/06/16 04:21:07;;;;;;;10.52;5.45;;;;;;;19.35;48.40;101551.66;4994054;28;114279;-71
2021/06/16 04:23:34;;;;;;;10.55;5.72;;;;;;;19.38;48.48;101552.28;5005407;28;115005;-70
2021/06/16 04:26:02;;;;;;;11.93;5.50;;;;;;;19.42;48.72;101547.53;4994411;28;123956;-70
2021/06/16 04:28:29;;;;;;;15.52;6.30;;;;;;;19.44;48.79;101546.47;5011217;28;123967;-71
2021/06/16 04:30:56;;;;;;;10.40;6.32;;;;;;;19.47;49.21;101548.06;5012620;28;114791;-70
2021/06/16 04:33:23;;;;;;;15.02;7.00;;;;;;;19.49;49.24;101551.50;5009704;28;114476;-70
2021/06/16 04:35:50;;;;;;;12.55;6.03;;;;;;;19.51;49.10;101546.03;5010284;28;124405;-70
2021/06/16 04:38:17;;;;;;;11.25;6.53;;;;;;;19.53;49.13;101544.94;5012140;28;124220;-70
2021/06/16 04:40:45;;;;;;;12.75;6.28;;;;;;;19.56;49.09;101549.25;5010042;28;114997;-70
2021/06/16 04:43:12;;;;;;;13.75;6.97;;;;;;;19.60;49.33;101551.59;5011987;28;113688;-71
2021/06/16 04:45:42;;;;;;;12.35;6.93;;;;;;;19.65;49.31;101543.22;5011453;28;124947;-70
2021/06/16 04:48:10;;;;;;;10.88;6.45;;;;;;;19.71;49.31;101536.53;4993444;28;122823;-70
2021/06/16 04:50:37;;;;;;;13.82;6.95;;;;;;;19.78;49.35;101540.53;5010824;28;114083;-70
2021/06/16 04:53:04;;;;;;;13.95;6.45;;;;;;;19.83;49.34;101535.66;5009287;28;114380;-70
2021/06/16 04:55:32;;;;;;;12.10;6.53;;;;;;;19.92;49.29;101540.38;5009289;28;125187;-70
2021/06/16 04:57:59;;;;;;;13.90;6.22;;;;;;;19.99;49.18;101530.88;5010924;28;124498;-70
2021/06/16 05:00:26;;;;;;;13.43;6.57;;;;;;;20.09;49.13;101530.22;4993739;28;113188;-70
2021/06/16 05:02:55;;;;;;;13.80;5.90;;;;;;;20.16;49.33;101526.09;5010748;28;113669;-70
2021/06/16 05:05:23;;;;;;;9.48;5.50;;;;;;;20.23;49.21;101528.19;5004876;28;124607;-69
2021/06/16 05:07:50;;;;;;;13.52;5.50;;;;;;;20.32;48.98;101526.63;5010909;28;124144;-69
2021/06/16 05:10:17;;;;;;;9.70;5.70;;;;;;;20.41;48.71;101525.94;4990749;28;115023;-69
2021/06/16 05:12:44;;;;;;;12.48;5.55;;;;;;;20.49;48.72;101524.50;5012285;28;114914;-69
2021/06/16 05:15:12;;;;;;;12.02;5.80;;;;;;;20.58;48.77;101523.81;4991108;28;124253;-70
2021/06/16 05:17:40;;;;;;;10.02;5.53;;;;;;;20.66;48.74;101518.72;5004772;28;123861;-69
2021/06/16 05:20:11;;;;;;;8.60;5.28;;;;;;;20.74;48.64;101521.69;4986115;28;113211;-69
2021/06/16 05:22:39;;;;;;;13.10;5.50;;;;;;;20.83;48.41;101524.63;5007824;28;112903;-71
2021/06/16 05:25:09;;;;;;;9.57;5.32;;;;;;;20.89;48.24;101518.75;4993658;28;124134;-69
2021/06/16 05:27:37;;;;;;;11.90;5.32;;;;;;;20.98;48.40;101518.03;5011993;28;124214;-70
2021/06/16 05:30:06;;;;;;;11.77;4.90;;;;;;;21.04;48.28;101522.97;5013754;28;114803;-70
2021/06/16 05:32:35;;;;;;;11.15;4.82;;;;;;;21.11;48.14;101518.78;5007953;28;114465;-70
2021/06/16 05:35:05;;;;;;;10.65;4.93;;;;;;;21.19;47.91;101510.97;5013796;28;123901;-70
2021/06/16 05:37:32;;;;;;;12.50;5.63;;;;;;;21.28;47.77;101509.38;5013789;28;123933;-70
2021/06/16 05:39:59;;;;;;;9.23;5.10;;;;;;;21.35;47.99;101509.75;5015325;28;114453;-70
2021/06/16 05:42:26;;;;;;;11.32;5.60;;;;;;;21.42;47.74;101510.97;5013365;28;114785;-70
2021/06/16 05:44:53;;;;;;;11.82;5.22;;;;;;;21.49;47.81;101505.97;5013206;28;128097;-70
2021/06/16 05:47:21;;;;;;;9.18;5.15;;;;;;;21.56;47.61;101502.66;4995827;28;122792;-70
2021/06/16 05:49:48;;;;;;;14.45;5.55;;;;;;;21.65;47.50;101516.38;5012157;28;114598;-71
2021/06/16 05:52:15;;;;;;;11.35;5.75;;;;;;;21.73;47.65;101508.50;5012822;28;114088;-70
2021/06/16 05:54:43;;;;;;;11.95;5.60;;;;;;;21.84;47.58;101510.34;5011819;28;123777;-70
2021/06/16 05:57:10;;;;;;;10.48;5.53;;;;;;;21.95;47.51;101513.84;5012653;28;123728;-70
2021/06/16 05:59:41;;;;;;;9.80;5.35;;;;;;;22.06;47.29;101514.81;5011694;28;114952;-70
2021/06/16 06:02:08;;;;;;;12.30;5.40;;;;;;;22.18;47.26;101508.38;5014377;28;114866;-70
2021/06/16 06:04:35;;;;;;;11.48;5.47;;;;;;;22.31;47.02;101498.31;5012027;28;124862;-70
2021/06/16 06:07:03;;;;;;;16.60;5.72;;;;;;;22.44;46.79;101508.06;5013673;28;124523;-70
2021/06/16 06:09:30;;;;;;;10.85;5.55;;;;;;;22.53;46.48;101491.09;4997207;28;113546;-70
2021/06/16 06:11:59;;;;;;;10.57;5.50;;;;;;;22.64;46.56;101488.34;4995329;28;114477;-70
2021/06/16 06:14:26;;;;;;;11.00;5.60;;;;;;;22.74;46.34;101489.25;5011647;28;124632;-70
2021/06/16 06:16:54;;;;;;;13.35;5.53;;;;;;;22.86;46.06;101481.06;5012046;28;124065;-70
2021/06/16 06:19:22;;;;;;;10.88;5.68;;;;;;;22.97;46.17;101483.69;5012754;28;114163;-70
2021/06/16 06:21:49;;;;;;;11.55;5.80;;;;;;;23.09;45.80;101488.06;5011611;28;114928;-70
2021/06/16 06:24:16;;;;;;;12.25;5.75;;;;;;;23.22;45.79;101486.94;5010626;28;124647;-70
2021/06/16 06:26:44;;;;;;;9.82;5.50;;;;;;;23.33;45.54;101478.75;5012535;28;124049;-71
2021/06/16 06:29:11;;;;;;;8.90;5.30;;;;;;;23.46;45.43;101473.94;5013334;28;114377;-71
2021/06/16 06:31:38;;;;;;;13.48;5.50;;;;;;;23.60;45.38;101474.53;5012700;28;114345;-71
2021/06/16 06:34:05;;;;;;;12.23;5.82;;;;;;;23.75;44.87;101478.56;5011132;28;124554;-71
2021/06/16 06:36:33;;;;;;;12.68;5.45;;;;;;;23.89;44.48;101474.66;5012044;28;124122;-71
2021/06/16 06:39:00;;;;;;;12.85;5.50;;;;;;;24.01;44.12;101472.66;5010656;28;114092;-71
2021/06/16 06:41:28;;;;;;;12.10;5.57;;;;;;;24.12;43.90;101469.81;5013103;28;114096;-71
2021/06/16 06:43:55;;;;;;;10.57;5.13;;;;;;;24.24;43.48;101465.97;5011476;28;124740;-71
2021/06/16 06:46:22;;;;;;;14.63;5.72;;;;;;;24.39;43.40;101454.69;5011304;28;123993;-72
2021/06/16 06:48:49;;;;;;;11.80;5.30;;;;;;;24.48;43.04;101460.06;4995143;28;114193;-71
2021/06/16 06:51:16;;;;;;;10.40;5.50;;;;;;;24.60;42.73;101460.81;5012118;28;115566;-71
2021/06/16 06:53:43;;;;;;;10.32;5.55;;;;;;;24.73;42.56;101452.34;5012528;28;123869;-72
2021/06/16 06:56:10;;;;;;;12.27;5.22;;;;;;;24.85;42.55;101450.34;5012298;28;123990;-72
2021/06/16 06:58:37;;;;;;;10.23;5.40;;;;;;;24.99;42.60;101447.13;5010752;28;114188;-72
2021/06/16 07:01:04;;;;;;;10.63;5.18;;;;;;;25.14;42.31;101444.78;5011306;28;114094;-71
2021/06/16 07:03:33;;;;;;;10.07;4.57;;;;;;;25.29;41.60;101442.47;5011164;28;124084;-72
2021/06/16 07:06:00;;;;;;;14.55;4.82;;;;;;;25.45;41.70;101441.84;5003902;28;123855;-72
2021/06/16 07:08:27;;;;;;;10.40;4.18;;;;;;;25.61;41.08;101435.72;5004898;28;114716;-73
2021/06/16 07:10:55;;;;;;;8.73;3.75;;;;;;;25.76;40.80;101434.19;5013259;28;113936;-73
2021/06/16 07:13:22;;;;;;;8.25;3.80;;;;;;;25.92;40.26;101435.38;5012602;28;124644;-72
2021/06/16 07:16:07;;;;;;;7.93;3.92;;;;;;;26.05;39.86;101425.00;5010760;28;124258;-72
2021/06/16 07:18:34;;;;;;;8.13;4.40;;;;;;;26.19;39.81;101432.56;5010783;28;114392;-70
2021/06/16 07:21:02;;;;;;;9.75;4.13;;;;;;;26.32;39.74;101425.88;5011295;28;114769;-70
2021/06/16 07:23:29;;;;;;;7.93;3.90;;;;;;;26.44;39.41;101421.88;5003177;28;123989;-71
2021/06/16 07:25:56;;;;;;;8.77;3.75;;;;;;;26.56;38.72;101420.63;5001768;28;124032;-71
2021/06/16 07:28:24;;;;;;;10.65;3.67;;;;;;;26.68;38.46;101423.09;5012763;28;114149;-70
2021/06/16 07:30:51;;;;;;;7.82;3.65;;;;;;;26.78;38.07;101407.53;5011955;28;114325;-71
2021/06/16 07:33:18;;;;;;;10.25;3.70;;;;;;;26.89;38.01;101409.97;5010805;28;124838;-71
2021/06/16 07:35:50;;;;;;;10.23;3.78;;;;;;;27.02;37.76;101414.94;5010478;28;124662;-71
2021/06/16 07:38:17;;;;;;;8.07;3.72;;;;;;;27.13;37.88;101411.09;5012521;28;115128;-71
2021/06/16 07:40:44;;;;;;;11.93;3.75;;;;;;;27.23;37.10;101402.81;5013415;28;115243;-71
2021/06/16 07:43:12;;;;;;;7.95;3.60;;;;;;;27.32;37.45;101408.13;5011031;28;123731;-71
2021/06/16 07:45:39;;;;;;;8.50;3.78;;;;;;;27.42;37.47;101404.41;5010246;28;124002;-71
2021/06/16 07:48:06;;;;;;;7.53;3.85;;;;;;;27.55;37.22;101399.34;5024259;22;114590;-64
2021/06/16 07:50:36;;;;;;;5.00;2.97;;;;;;;27.70;37.09;101394.94;4973019;28;114268;-64
2021/06/16 07:53:06;;;;;;;6.57;3.83;;;;;;;27.83;36.26;101396.31;4991508;28;124875;-64
2021/06/16 07:55:35;;;;;;;8.82;3.10;;;;;;;27.89;35.79;101390.22;4975947;28;122910;-64
2021/06/16 07:58:03;;;;;;;11.35;2.97;;;;;;;27.94;35.72;101393.31;4992158;28;114630;-64
2021/06/16 08:00:31;;;;;;;5.90;3.50;;;;;;;28.03;35.70;101392.28;4990921;28;114107;-64
2021/06/16 08:02:59;;;;;;;10.57;3.38;;;;;;;28.09;35.36;101386.16;4972314;28;124949;-64
2021/06/16 08:05:26;;;;;;;7.32;3.58;;;;;;;28.15;35.36;101380.00;4991132;28;123846;-64
2021/06/16 08:07:53;;;;;;;6.88;3.40;;;;;;;28.20;35.05;101381.34;4975605;28;113415;-64
2021/06/16 08:10:20;;;;;;;6.93;2.97;;;;;;;28.25;34.93;101384.41;4987507;28;114744;-64
2021/06/16 08:12:47;;;;;;;5.85;2.97;;;;;;;28.27;34.88;101382.38;4984765;28;124680;-64
2021/06/16 08:15:15;;;;;;;5.32;3.35;;;;;;;28.32;34.98;101378.09;4986939;28;124333;-64
2021/06/16 08:17:42;;;;;;;7.25;3.17;;;;;;;28.42;34.97;101386.09;4991711;28;114436;-64
2021/06/16 08:20:10;;;;;;;7.78;3.45;;;;;;;28.51;35.04;101376.88;4958784;28;113492;-64
2021/06/16 08:22:38;;;;;;;6.80;3.30;;;;;;;28.63;34.18;101382.00;4974627;28;124769;-64
2021/06/16 08:25:10;;;;;;;7.13;2.67;;;;;;;28.70;34.45;101377.53;4989844;28;124513;-64
2021/06/16 08:27:39;;;;;;;6.72;2.90;;;;;;;28.78;33.80;101380.22;4990157;28;115122;-64
2021/06/16 08:30:09;;;;;;;7.63;2.90;;;;;;;28.86;33.94;101376.66;4990080;28;115209;-64
2021/06/16 08:32:37;;;;;;;6.63;3.13;;;;;;;28.92;33.50;101376.78;4989921;28;124152;-64
2021/06/16 08:35:05;;;;;;;4.97;2.90;;;;;;;28.98;33.26;101368.91;4989835;28;123903;-64
2021/06/16 08:37:32;;;;;;;6.82;2.78;;;;;;;29.02;33.15;101370.25;4991317;28;115074;-64
2021/06/16 08:40:00;;;;;;;4.32;2.85;;;;;;;29.07;33.28;101368.69;4990044;28;114230;-63
2021/06/16 08:42:28;;;;;;;5.30;2.65;;;;;;;29.16;33.29;101364.09;4990101;28;124327;-64
2021/06/16 08:44:57;;;;;;;7.10;2.42;;;;;;;29.24;33.61;101361.31;4989747;28;124783;-64
2021/06/16 08:47:25;;;;;;;5.38;2.63;;;;;;;29.33;33.01;101355.78;4990852;28;114401;-64
2021/06/16 08:49:53;;;;;;;5.70;3.17;;;;;;;29.39;32.31;101360.53;4992068;28;114617;-64
2021/06/16 08:52:21;;;;;;;5.10;2.80;;;;;;;29.39;32.56;101357.81;4991633;28;124063;-64
2021/06/16 08:54:48;;;;;;;8.73;3.50;;;;;;;29.41;32.44;101347.56;4987355;28;123915;-63
2021/06/16 08:57:15;;;;;;;6.32;3.28;;;;;;;29.44;32.43;101347.19;4988915;28;114735;-64
2021/06/16 08:59:43;;;;;;;4.80;2.75;;;;;;;29.46;32.23;101350.59;4989791;28;114444;-64
2021/06/16 09:02:10;;;;;;;6.13;3.03;;;;;;;29.51;32.23;101349.00;4971488;28;124219;-64
2021/06/16 09:04:55;;;;;;;6.50;2.75;;;;;;;29.55;32.56;101344.03;4987405;28;124732;-64
2021/06/16 09:07:23;;;;;;;;;;;;;;;29.61;32.82;101345.19;4988552;28;114340;-64
2021/06/16 09:10:11;;;;;;;4.72;2.90;;;;;;;29.72;32.17;101338.47;4972480;28;113924;-64
2021/06/16 09:13:06;;;;;;;6.80;2.70;;;;;;;29.77;32.07;101344.25;4971745;28;124988;-63
2021/06/16 09:15:34;;;;;;;4.78;3.03;;;;;;;29.85;31.40;101344.19;4987607;28;124096;-64
2021/06/16 09:18:07;;;;;;;7.05;3.00;;;;;;;29.88;31.65;101349.28;4973348;28;115357;-64
2021/06/16 09:20:43;;;;;;;7.38;3.00;;;;;;;29.90;31.52;101330.81;4989079;28;114667;-63
2021/06/16 09:23:14;;;;;;;6.32;2.80;;;;;;;29.94;31.41;101337.59;4990959;28;123907;-64
2021/06/16 09:25:43;;;;;;;5.63;2.90;;;;;;;29.97;31.97;101331.78;4974126;28;123029;-63
2021/06/16 09:28:11;;;;;;;7.85;3.08;;;;;;;30.05;32.11;101337.16;4991473;28;114188;-63
2021/06/16 09:30:43;;;;;;;5.90;2.85;;;;;;;30.13;31.15;101335.38;4973607;28;113383;-63
2021/06/16 09:33:14;;;;;;;6.68;3.08;;;;;;;30.17;31.10;101342.19;4982002;28;123909;-63
2021/06/16 09:35:48;;;;;;;7.18;2.60;;;;;;;30.19;30.97;101334.63;4990902;28;124614;-63
2021/06/16 09:38:25;;;;;;;5.28;2.72;;;;;;;30.22;31.37;101335.13;4972974;28;113325;-63
2021/06/16 09:40:53;;;;;;;4.68;2.90;;;;;;;30.29;31.05;101329.75;4973931;28;113574;-64
2021/06/16 09:43:22;;;;;;;9.20;3.40;;;;;;;30.36;31.63;101325.25;4989174;28;123994;-63
2021/06/16 09:45:58;;;;;;;7.82;3.08;;;;;;;30.44;31.51;101329.78;4988733;28;124658;-64
2021/06/16 09:48:29;;;;;;;8.32;3.53;;;;;;;30.55;31.48;101328.47;4986590;28;114393;-64
2021/06/16 09:51:26;;;;;;;9.20;3.47;;;;;;;30.64;31.88;101316.38;4977750;28;114153;-63
2021/06/16 09:54:18;;;;;;;4.85;3.03;;;;;;;30.73;31.59;101326.19;4971570;28;124647;-64
2021/06/16 09:56:53;;;;;;;7.10;3.55;;;;;;;30.82;31.15;101319.56;4981116;28;124747;-63
2021/06/16 09:59:44;;;;;;;5.70;3.45;;;;;;;30.89;31.11;101318.81;4984433;28;114233;-64
2021/06/16 10:02:24;;;;;;;4.70;3.05;;;;;;;30.89;31.10;101307.84;4982579;28;114645;-63
2021/06/16 10:04:59;;;;;;;6.45;3.80;;;;;;;30.95;31.08;101312.59;4971950;28;123430;-64
2021/06/16 10:07:28;;;;;;;6.45;3.35;;;;;;;31.00;31.57;101310.97;4982447;28;123986;-64
2021/06/16 10:10:12;;;;;;;10.80;3.35;;;;;;;31.09;32.28;101298.03;4983627;28;115350;-64
2021/06/16 10:12:41;;;;;;;7.78;3.17;;;;;;;31.21;32.10;101301.97;4979604;28;114910;-64
2021/06/16 10:15:11;;;;;;;6.25;3.50;;;;;;;31.31;31.38;101295.31;4989555;28;124337;-64
2021/06/16 10:17:40;;;;;;;4.53;3.20;;;;;;;31.38;30.88;101290.75;4979408;28;123003;-64
2021/06/16 10:20:09;;;;;;;4.40;2.90;;;;;;;31.38;31.81;101285.25;4994216;28;114050;-64
2021/06/16 10:22:36;;;;;;;6.43;3.40;;;;;;;31.44;31.65;101288.09;4992167;28;114234;-64
2021/06/16 10:25:05;;;;;;;5.35;3.50;;;;;;;31.54;31.31;101279.56;4989430;28;124354;-64
2021/06/16 10:27:37;;;;;;;9.77;4.15;;;;;;;31.65;30.91;101274.56;4986724;28;123991;-64
2021/06/16 10:30:12;;;;;;;9.65;4.10;;;;;;;31.71;30.70;101273.81;4976927;28;114343;-64
2021/06/16 10:32:45;;;;;;;8.13;4.25;;;;;;;31.77;30.83;101283.97;4993179;28;113534;-63
2021/06/16 10:35:21;;;;;;;6.75;3.97;;;;;;;31.82;31.41;101276.84;4991953;28;124363;-64
2021/06/16 10:37:49;;;;;;;9.57;4.00;;;;;;;31.90;31.09;101280.47;4991995;28;124178;-64
2021/06/16 10:40:19;;;;;;;7.97;3.80;;;;;;;31.94;30.77;101285.34;4978495;28;113426;-64
2021/06/16 10:42:58;;;;;;;25.17;4.85;;;;;;;31.95;31.09;101280.75;4979924;28;114155;-64
2021/06/16 10:45:59;;;;;;;4.63;3.33;;;;;;;31.94;30.71;101279.88;4986132;28;124201;-64
2021/06/16 10:48:54;;;;;;;19.95;4.20;;;;;;;32.01;31.45;101285.41;4979895;28;124288;-64
2021/06/16 10:51:27;;;;;;;14.05;4.22;;;;;;;32.11;30.66;101274.13;4983051;28;114483;-64
2021/06/16 10:54:13;;;;;;;12.48;4.03;;;;;;;32.18;30.54;101275.00;4970314;28;114024;-64
2021/06/16 10:56:42;;;;;;;8.50;4.00;;;;;;;32.25;30.89;101286.88;4989075;28;124442;-64
2021/06/16 10:59:10;;;;;;;8.60;3.58;;;;;;;32.33;31.51;101278.47;4983813;28;126232;-64
2021/06/16 11:01:50;;;;;;;6.72;3.95;;;;;;;32.45;31.20;101269.66;4985103;28;115726;-64
2021/06/16 11:04:31;;;;;;;6.28;3.63;;;;;;;32.52;31.03;101276.03;4984789;28;115226;-64
2021/06/16 11:06:58;;;;;;;11.40;3.60;;;;;;;32.58;31.57;101275.25;4974517;28;124272;-64
2021/06/16 11:09:55;;;;;;;12.73;5.32;;;;;;;32.63;30.73;101278.22;4979613;28;124581;-64
2021/06/16 11:12:39;;;;;;;12.57;4.80;;;;;;;32.60;30.57;101267.66;4985229;28;115207;-64
2021/06/16 11:15:09;;;;;;;6.82;3.95;;;;;;;32.64;30.50;101262.59;4990337;28;114232;-64
2021/06/16 11:17:39;;;;;;;12.27;5.22;;;;;;;32.71;30.05;101258.84;4989031;28;124310;-64
2021/06/16 11:20:11;;;;;;;8.75;5.15;;;;;;;32.72;31.25;101249.56;4988752;28;123067;-64
2021/06/16 11:22:52;;;;;;;8.55;5.70;;;;;;;32.77;30.24;101247.03;4990014;28;114203;-64
2021/06/16 11:25:29;;;;;;;9.70;5.35;;;;;;;32.86;31.14;101244.13;4982180;28;113935;-64
2021/06/16 11:28:11;;;;;;;10.90;6.40;;;;;;;32.96;30.41;101244.56;4984423;28;124760;-64